This is the latest recevied weather packets stored in our database for station/object EA5CLU-13. If no packets are shown the sender has not sent any weather packets the latest 1 day(s).
| Time | Temp. | Humidity | Pressure | Rain* | Wind** | Luminosity | Snow |
|---|---|---|---|---|---|---|---|
| 1778043551 | 11.11° C | 94% | 1015.8 hPa | 0 mm | - | - | - |
| 1778041742 | 11.67° C | 94% | 1015.6 hPa | 0 mm | - | - | - |
| 1778040241 | 11.11° C | 94% | 1015.3 hPa | 0 mm | - | - | - |
| 1778038441 | 11.67° C | 93% | 1015.7 hPa | 0 mm | - | - | - |
| 1778036643 | 12.22° C | 90% | 1015.5 hPa | 0 mm | - | - | - |
| 1778034843 | 12.22° C | 90% | 1015.6 hPa | 0 mm | - | - | - |
| 1778033041 | 12.78° C | 90% | 1015.6 hPa | 0 mm | - | - | - |
| 1778031242 | 12.78° C | 91% | 1015.6 hPa | 0 mm | - | - | - |
| 1778029441 | 13.33° C | 89% | 1015.8 hPa | 0 mm | - | - | - |
| 1778027642 | 12.78° C | 91% | 1016 hPa | 0 mm | - | - | - |
| 1778026600 | 12.78° C | 92% | 1016.1 hPa | 0 mm | - | - | - |
| 1778024799 | 12.78° C | 90% | 1016.2 hPa | 0 mm | - | - | - |
| 1778023000 | 13.33° C | 89% | 1015.8 hPa | 0 mm | - | - | - |
| 1778021200 | 13.33° C | 87% | 1015.7 hPa | 0 mm | - | - | - |
| 1778019400 | 13.33° C | 78% | 1015.5 hPa | 0 mm | - | - | - |
| 1778018036 | 13.89° C | 68% | 1015.3 hPa | 0 mm | - | - | - |
| 1778016235 | 12.78° C | 73% | 1015 hPa | 0 mm | - | - | - |
| 1778014434 | 13.33° C | 70% | 1014.7 hPa | 0 mm | - | - | - |
| 1778012635 | 14.44° C | 65% | 1014.5 hPa | 0 mm | - | - | - |
| 1778010834 | 16.11° C | 55% | 1013.8 hPa | 0 mm | - | - | - |
| 1778008927 | 17.22° C | 54% | 1013.6 hPa | 0 mm | - | - | - |
| 1778007129 | 18.33° C | 48% | 1013 hPa | 0 mm | - | - | - |
| 1778005326 | 18.33° C | 65% | 1012.6 hPa | 0 mm | - | - | - |
| 1778003527 | 18.89° C | 65% | 1012.5 hPa | 0 mm | - | - | - |
| 1778001728 | 19.44° C | 60% | 1012.5 hPa | 0 mm | - | - | - |
* Rain latest hour (hover to see other rain measurements)
** Current wind speed in m/s (hover to see current wind gust speed)